Miami, FL

9:51 PM EDT on August 27, 2015 (GMT -0400)
DV Floral Group | | Change Station
CLOSE
Current Station
Personal Weather Station
Location: Miami, FL
Elevation: 26 ft
Nearby Weather Stations

Elev 26 ft 25.79 °N, 80.35 °W | Updated 2 minutes ago

Mostly Cloudy
Mostly Cloudy
84.1 °F
Feels Like 91 °F
N
5.0
Wind Variable Wind from East
Gusts 5.0 mph

Today
High -- | Low -- °F
--% Chance of Precip.
Yesterday
High -- | Low -- °F
Precip. -- in
6:59 AM 7:45 PM
Waxing Gibbous, 96% visible
Pressure 29.96 in
Visibility 10.0 miles
Clouds Few 4000 ft
Scattered Clouds 14000 ft
Mostly Cloudy 25000 ft
Heat Index 91 °F
Dew Point 74 °F
Humidity 71%
Rainfall 0.07 in
Snow Depth Not available.
UV 0 out of 12
Pollen .60 out of 12
Air Quality Not available.
Flu Activity Not available.
METAR KMIA 280053Z COR 09006KT 10SM FEW040 SCT140 BKN250 28/22 A2996 RMK AO2 SLP146 T02830217 $
Pressure 29.96 in
Visibility 10.0 miles
Clouds Few 4000 ft
Scattered Clouds 14000 ft
Mostly Cloudy 25000 ft
Heat Index 91 °F
Dew Point 74 °F
Humidity 71%
Rainfall 0.07 in
Snow Depth Not available.
UV 0 out of 12
Pollen .60 out of 12
Air Quality Not available.
Flu Activity Not available.
METAR KMIA 280053Z COR 09006KT 10SM FEW040 SCT140 BKN250 28/22 A2996 RMK AO2 SLP146 T02830217 $
Tropical Storm Erika remains unorganized as it travels through the northeast Caribbean Sea. The storm has already dumped 5-10 inches of rain on the Lesser Antilles, with more rain anticipated for Puerto Rico and Hispaniola. This will be much-needed rain for those islands. Erika is not forecast to reach hurricane strength until Monday when it curves northward along the east coast of Florida. Follow the live blog

10-Day Weather Forecast

×

Almanac

Astronomy

Aug. 27, 2015 Rise Set
Actual Time
Civil Twilight
Nautical Twilight
Astronomical Twilight
Moon
Length of Visible Light
Length of Day
Tomorrow will be .
, % of the Moon is Illuminated

Today's Extremes

State Highs State Lows

Community

WunderPhotos

Upload Photos

1,850,296 photos uploaded!

WunderBlogs® & News

Nearby

Air Quality

  Air Quality AQ Index Pollutant
Not available.

Snow Depth

Station Depth Elevation

Earthquake Activity

City Distance Mag. Time & Date
Minimum magnitude displayed is 2.5.

Coastal Water Temperatures

Place Temperature

Stations

Nearby Weather Stations

Station Location Temp. Windchill Dew Point Humidity Wind Precip. Elev Updated Type